sensor_id;sensor_type;location;lat;lon;timestamp;pressure;altitude;pressure_sealevel;temperature;humidity
45369;BME280;51342;55.250;37.668;2022-12-16T00:01:55;99311.16;;;-4.11;79.09
45369;BME280;51342;55.250;37.668;2022-12-16T00:04:28;99318.91;;;-4.09;79.06
45369;BME280;51342;55.250;37.668;2022-12-16T00:07:00;99298.69;;;-4.09;79.10
45369;BME280;51342;55.250;37.668;2022-12-16T00:09:31;99306.47;;;-4.08;79.19
45369;BME280;51342;55.250;37.668;2022-12-16T00:12:02;99298.69;;;-4.09;79.03
45369;BME280;51342;55.250;37.668;2022-12-16T00:14:34;99301.56;;;-4.06;79.26
45369;BME280;51342;55.250;37.668;2022-12-16T00:17:05;99300.97;;;-4.04;79.13
45369;BME280;51342;55.250;37.668;2022-12-16T00:19:37;99292.84;;;-4.01;79.26
45369;BME280;51342;55.250;37.668;2022-12-16T00:22:08;99295.53;;;-4.00;79.51
45369;BME280;51342;55.250;37.668;2022-12-16T00:24:40;99293.91;;;-3.99;79.19
45369;BME280;51342;55.250;37.668;2022-12-16T00:27:11;99294.03;;;-3.97;79.27
45369;BME280;51342;55.250;37.668;2022-12-16T00:29:42;99284.28;;;-3.94;79.23
45369;BME280;51342;55.250;37.668;2022-12-16T00:32:14;99280.13;;;-3.94;79.35
45369;BME280;51342;55.250;37.668;2022-12-16T00:34:45;99284.63;;;-3.91;79.31
45369;BME280;51342;55.250;37.668;2022-12-16T00:37:17;99277.19;;;-3.90;79.39
45369;BME280;51342;55.250;37.668;2022-12-16T00:39:48;99275.41;;;-3.91;79.33
45369;BME280;51342;55.250;37.668;2022-12-16T00:42:20;99280.03;;;-3.87;79.49
45369;BME280;51342;55.250;37.668;2022-12-16T00:44:51;99286.88;;;-3.86;79.52
45369;BME280;51342;55.250;37.668;2022-12-16T00:47:23;99277.69;;;-3.85;79.43
45369;BME280;51342;55.250;37.668;2022-12-16T00:49:54;99284.69;;;-3.83;79.44
45369;BME280;51342;55.250;37.668;2022-12-16T00:52:26;99291.69;;;-3.80;79.34
45369;BME280;51342;55.250;37.668;2022-12-16T00:54:57;99286.81;;;-3.79;79.52
45369;BME280;51342;55.250;37.668;2022-12-16T00:57:29;99293.81;;;-3.76;79.69
45369;BME280;51342;55.250;37.668;2022-12-16T01:00:00;99294.88;;;-3.74;79.56
45369;BME280;51342;55.250;37.668;2022-12-16T01:02:35;99300.09;;;-3.72;79.54
45369;BME280;51342;55.250;37.668;2022-12-16T01:05:07;99297.56;;;-3.72;79.59
45369;BME280;51342;55.250;37.668;2022-12-16T01:07:39;99302.91;;;-3.69;79.61
45369;BME280;51342;55.250;37.668;2022-12-16T01:10:11;99305.78;;;-3.66;79.59
45369;BME280;51342;55.250;37.668;2022-12-16T01:12:43;99296.41;;;-3.67;79.67
45369;BME280;51342;55.250;37.668;2022-12-16T01:15:15;99299.09;;;-3.66;79.73
45369;BME280;51342;55.250;37.668;2022-12-16T01:17:46;99299.25;;;-3.64;79.84
45369;BME280;51342;55.250;37.668;2022-12-16T01:20:18;99293.44;;;-3.63;79.82
45369;BME280;51342;55.250;37.668;2022-12-16T01:22:49;99297.81;;;-3.62;79.79
45369;BME280;51342;55.250;37.668;2022-12-16T01:25:20;99297.06;;;-3.61;79.73
45369;BME280;51342;55.250;37.668;2022-12-16T01:27:52;99298.25;;;-3.58;79.79
45369;BME280;51342;55.250;37.668;2022-12-16T01:30:23;99291.41;;;-3.59;79.63
45369;BME280;51342;55.250;37.668;2022-12-16T01:32:55;99292.31;;;-3.58;79.91
45369;BME280;51342;55.250;37.668;2022-12-16T01:35:26;99295.03;;;-3.57;79.85
45369;BME280;51342;55.250;37.668;2022-12-16T01:37:58;99298.59;;;-3.55;79.83
45369;BME280;51342;55.250;37.668;2022-12-16T01:40:29;99295.31;;;-3.54;79.73
45369;BME280;51342;55.250;37.668;2022-12-16T01:43:01;99291.91;;;-3.54;80.01
45369;BME280;51342;55.250;37.668;2022-12-16T01:45:33;99296.81;;;-3.56;79.91
45369;BME280;51342;55.250;37.668;2022-12-16T01:48:21;99290.84;;;-3.56;79.91
45369;BME280;51342;55.250;37.668;2022-12-16T01:51:02;99282.53;;;-3.55;79.98
45369;BME280;51342;55.250;37.668;2022-12-16T01:53:36;99298.94;;;-3.52;79.95
45369;BME280;51342;55.250;37.668;2022-12-16T01:56:09;99299.97;;;-3.50;80.06
45369;BME280;51342;55.250;37.668;2022-12-16T01:58:44;99305.34;;;-3.47;80.13
45369;BME280;51342;55.250;37.668;2022-12-16T02:01:16;99311.47;;;-3.44;80.04
45369;BME280;51342;55.250;37.668;2022-12-16T02:03:48;99305.09;;;-3.41;80.01
45369;BME280;51342;55.250;37.668;2022-12-16T02:06:20;99302.41;;;-3.42;80.35
45369;BME280;51342;55.250;37.668;2022-12-16T02:08:55;99316.09;;;-3.40;80.11
45369;BME280;51342;55.250;37.668;2022-12-16T02:26:33;99316.28;;;-3.39;80.22
45369;BME280;51342;55.250;37.668;2022-12-16T02:32:05;99316.84;;;-3.41;80.45
45369;BME280;51342;55.250;37.668;2022-12-16T02:46:09;99324.81;;;-3.30;80.48
45369;BME280;51342;55.250;37.668;2022-12-16T02:48:41;99319.03;;;-3.29;80.42
45369;BME280;51342;55.250;37.668;2022-12-16T02:51:12;99310.84;;;-3.26;80.39
45369;BME280;51342;55.250;37.668;2022-12-16T02:53:45;99319.50;;;-3.24;80.54
45369;BME280;51342;55.250;37.668;2022-12-16T03:04:50;99317.28;;;-3.21;80.50
45369;BME280;51342;55.250;37.668;2022-12-16T03:07:25;99323.41;;;-3.19;80.46
45369;BME280;51342;55.250;37.668;2022-12-16T03:09:58;99323.88;;;-3.14;80.62
45369;BME280;51342;55.250;37.668;2022-12-16T03:12:30;99324.78;;;-3.14;80.55
45369;BME280;51342;55.250;37.668;2022-12-16T03:15:04;99323.88;;;-3.14;80.42
45369;BME280;51342;55.250;37.668;2022-12-16T03:17:38;99328.53;;;-3.10;80.67
45369;BME280;51342;55.250;37.668;2022-12-16T03:20:25;99333.44;;;-3.12;80.71
45369;BME280;51342;55.250;37.668;2022-12-16T03:23:02;99331.22;;;-3.09;80.82
45369;BME280;51342;55.250;37.668;2022-12-16T03:25:40;99331.34;;;-3.07;80.78
45369;BME280;51342;55.250;37.668;2022-12-16T03:28:35;99332.09;;;-3.08;80.67
45369;BME280;51342;55.250;37.668;2022-12-16T03:31:40;99329.00;;;-3.06;80.82
45369;BME280;51342;55.250;37.668;2022-12-16T03:34:18;99329.72;;;-3.07;80.56
45369;BME280;51342;55.250;37.668;2022-12-16T03:36:57;99335.13;;;-3.04;80.93
45369;BME280;51342;55.250;37.668;2022-12-16T03:39:34;99338.53;;;-3.03;80.93
45369;BME280;51342;55.250;37.668;2022-12-16T03:42:08;99348.66;;;-3.03;81.01
45369;BME280;51342;55.250;37.668;2022-12-16T03:44:42;99344.97;;;-2.98;80.78
45369;BME280;51342;55.250;37.668;2022-12-16T03:47:14;99351.69;;;-2.99;80.81
45369;BME280;51342;55.250;37.668;2022-12-16T03:49:45;99362.69;;;-2.98;81.11
45369;BME280;51342;55.250;37.668;2022-12-16T03:52:17;99358.69;;;-2.96;81.02
45369;BME280;51342;55.250;37.668;2022-12-16T03:54:48;99359.75;;;-2.94;81.06
45369;BME280;51342;55.250;37.668;2022-12-16T03:57:20;99363.91;;;-2.95;81.19
45369;BME280;51342;55.250;37.668;2022-12-16T03:59:51;99374.34;;;-2.91;80.94
45369;BME280;51342;55.250;37.668;2022-12-16T04:02:23;99369.44;;;-2.90;80.89
45369;BME280;51342;55.250;37.668;2022-12-16T04:04:54;99375.22;;;-2.91;81.04
45369;BME280;51342;55.250;37.668;2022-12-16T04:07:26;99383.91;;;-2.89;81.05
45369;BME280;51342;55.250;37.668;2022-12-16T04:09:57;99373.78;;;-2.89;80.98
45369;BME280;51342;55.250;37.668;2022-12-16T04:12:29;99382.97;;;-2.89;81.35
45369;BME280;51342;55.250;37.668;2022-12-16T04:15:18;99386.25;;;-2.90;81.49
45369;BME280;51342;55.250;37.668;2022-12-16T04:17:50;99396.88;;;-2.86;81.32
45369;BME280;51342;55.250;37.668;2022-12-16T04:20:44;99400.13;;;-2.87;81.16
45369;BME280;51342;55.250;37.668;2022-12-16T04:23:36;99401.19;;;-2.85;81.33
45369;BME280;51342;55.250;37.668;2022-12-16T04:26:28;99400.28;;;-2.85;81.41
45369;BME280;51342;55.250;37.668;2022-12-16T04:29:00;99412.38;;;-2.83;81.39
45369;BME280;51342;55.250;37.668;2022-12-16T04:31:31;99404.59;;;-2.84;81.32
45369;BME280;51342;55.250;37.668;2022-12-16T04:34:03;99406.72;;;-2.80;81.42
45369;BME280;51342;55.250;37.668;2022-12-16T04:37:01;99411.63;;;-2.82;81.51
45369;BME280;51342;55.250;37.668;2022-12-16T04:39:51;99410.56;;;-2.84;81.47
45369;BME280;51342;55.250;37.668;2022-12-16T04:42:41;99425.50;;;-2.78;81.69
45369;BME280;51342;55.250;37.668;2022-12-16T04:45:31;99434.91;;;-2.77;81.45
45369;BME280;51342;55.250;37.668;2022-12-16T04:48:21;99434.00;;;-2.78;81.62
45369;BME280;51342;55.250;37.668;2022-12-16T04:51:11;99438.34;;;-2.77;81.69
45369;BME280;51342;55.250;37.668;2022-12-16T04:54:01;99437.59;;;-2.76;81.59
45369;BME280;51342;55.250;37.668;2022-12-16T04:56:50;99446.97;;;-2.75;81.49
45369;BME280;51342;55.250;37.668;2022-12-16T04:59:40;99446.22;;;-2.74;81.62
45369;BME280;51342;55.250;37.668;2022-12-16T05:02:30;99458.00;;;-2.74;81.46
45369;BME280;51342;55.250;37.668;2022-12-16T05:05:20;99456.34;;;-2.74;81.52
45369;BME280;51342;55.250;37.668;2022-12-16T05:08:10;99463.81;;;-2.75;81.39
45369;BME280;51342;55.250;37.668;2022-12-16T05:11:00;99465.75;;;-2.73;81.59
45369;BME280;51342;55.250;37.668;2022-12-16T05:13:50;99473.94;;;-2.75;81.45
45369;BME280;51342;55.250;37.668;2022-12-16T05:16:40;99477.69;;;-2.72;81.46
45369;BME280;51342;55.250;37.668;2022-12-16T05:19:30;99484.53;;;-2.71;81.79
45369;BME280;51342;55.250;37.668;2022-12-16T05:22:20;99494.69;;;-2.71;81.62
45369;BME280;51342;55.250;37.668;2022-12-16T05:25:10;99489.63;;;-2.71;81.52
45369;BME280;51342;55.250;37.668;2022-12-16T05:28:00;99501.53;;;-2.70;81.61
45369;BME280;51342;55.250;37.668;2022-12-16T05:30:50;99505.09;;;-2.68;81.85
45369;BME280;51342;55.250;37.668;2022-12-16T05:33:40;99510.34;;;-2.66;81.78
45369;BME280;51342;55.250;37.668;2022-12-16T05:36:30;99527.34;;;-2.65;81.46
45369;BME280;51342;55.250;37.668;2022-12-16T05:39:20;99532.41;;;-2.65;81.66
45369;BME280;51342;55.250;37.668;2022-12-16T05:42:10;99532.56;;;-2.63;81.60
45369;BME280;51342;55.250;37.668;2022-12-16T05:45:00;99532.56;;;-2.63;81.92
45369;BME280;51342;55.250;37.668;2022-12-16T05:47:50;99538.53;;;-2.63;81.88
45369;BME280;51342;55.250;37.668;2022-12-16T05:50:40;99537.63;;;-2.63;81.77
45369;BME280;51342;55.250;37.668;2022-12-16T05:53:30;99555.50;;;-2.62;81.83
45369;BME280;51342;55.250;37.668;2022-12-16T05:56:20;99555.50;;;-2.62;81.78
45369;BME280;51342;55.250;37.668;2022-12-16T05:59:10;99557.47;;;-2.59;81.71
45369;BME280;51342;55.250;37.668;2022-12-16T06:02:00;99552.25;;;-2.61;81.88
45369;BME280;51342;55.250;37.668;2022-12-16T06:04:50;99560.16;;;-2.58;81.60
45369;BME280;51342;55.250;37.668;2022-12-16T06:07:40;99566.13;;;-2.57;81.51
45369;BME280;51342;55.250;37.668;2022-12-16T06:10:30;99572.97;;;-2.56;81.85
45369;BME280;51342;55.250;37.668;2022-12-16T06:13:19;99573.72;;;-2.57;81.85
45369;BME280;51342;55.250;37.668;2022-12-16T06:16:29;99587.44;;;-2.55;81.77
45369;BME280;51342;55.250;37.668;2022-12-16T06:19:19;99594.31;;;-2.54;81.59
45369;BME280;51342;55.250;37.668;2022-12-16T06:22:09;99601.47;;;-2.50;81.55
45369;BME280;51342;55.250;37.668;2022-12-16T06:24:59;99607.63;;;-2.48;81.76
45369;BME280;51342;55.250;37.668;2022-12-16T06:27:52;99615.03;;;-2.50;81.89
45369;BME280;51342;55.250;37.668;2022-12-16T06:30:42;99626.41;;;-2.46;81.56
45369;BME280;51342;55.250;37.668;2022-12-16T06:33:32;99635.06;;;-2.44;81.47
45369;BME280;51342;55.250;37.668;2022-12-16T06:36:22;99642.66;;;-2.44;81.53
45369;BME280;51342;55.250;37.668;2022-12-16T06:39:12;99658.94;;;-2.42;81.44
45369;BME280;51342;55.250;37.668;2022-12-16T06:42:02;99660.00;;;-2.40;81.79
45369;BME280;51342;55.250;37.668;2022-12-16T06:44:52;99662.38;;;-2.42;81.29
45369;BME280;51342;55.250;37.668;2022-12-16T06:47:42;99670.47;;;-2.37;81.13
45369;BME280;51342;55.250;37.668;2022-12-16T06:50:32;99676.84;;;-2.41;81.19
45369;BME280;51342;55.250;37.668;2022-12-16T06:53:22;99684.03;;;-2.36;81.25
45369;BME280;51342;55.250;37.668;2022-12-16T06:56:12;99690.00;;;-2.36;81.12
45369;BME280;51342;55.250;37.668;2022-12-16T06:59:02;99702.81;;;-2.34;81.01
45369;BME280;51342;55.250;37.668;2022-12-16T07:01:52;99708.03;;;-2.33;80.71
45369;BME280;51342;55.250;37.668;2022-12-16T07:04:42;99711.66;;;-2.31;80.67
45369;BME280;51342;55.250;37.668;2022-12-16T07:07:32;99718.53;;;-2.30;80.44
45369;BME280;51342;55.250;37.668;2022-12-16T07:10:21;99727.03;;;-2.29;80.24
45369;BME280;51342;55.250;37.668;2022-12-16T07:13:12;99740.03;;;-2.26;80.34
45369;BME280;51342;55.250;37.668;2022-12-16T07:16:02;99741.31;;;-2.30;80.27
45369;BME280;51342;55.250;37.668;2022-12-16T07:18:52;99749.28;;;-2.27;80.24
45369;BME280;51342;55.250;37.668;2022-12-16T07:21:42;99759.41;;;-2.27;80.16
45369;BME280;51342;55.250;37.668;2022-12-16T07:24:32;99765.19;;;-2.28;80.13
45369;BME280;51342;55.250;37.668;2022-12-16T07:27:22;99780.22;;;-2.29;79.96
45369;BME280;51342;55.250;37.668;2022-12-16T07:30:11;99779.19;;;-2.31;79.96
45369;BME280;51342;55.250;37.668;2022-12-16T07:33:01;99786.78;;;-2.31;79.68
45369;BME280;51342;55.250;37.668;2022-12-16T07:35:51;99798.94;;;-2.36;79.59
45369;BME280;51342;55.250;37.668;2022-12-16T07:38:41;99801.47;;;-2.36;79.36
45369;BME280;51342;55.250;37.668;2022-12-16T07:41:31;99816.53;;;-2.37;79.27
45369;BME280;51342;55.250;37.668;2022-12-16T07:44:24;99816.75;;;-2.43;79.12
45369;BME280;51342;55.250;37.668;2022-12-16T07:47:13;99827.34;;;-2.38;78.69
45369;BME280;51342;55.250;37.668;2022-12-16T07:50:04;99835.53;;;-2.41;78.63
45369;BME280;51342;55.250;37.668;2022-12-16T07:52:57;99845.69;;;-2.41;78.52
45369;BME280;51342;55.250;37.668;2022-12-16T07:55:48;99855.81;;;-2.41;78.55
45369;BME280;51342;55.250;37.668;2022-12-16T07:58:38;99863.75;;;-2.38;78.23
45369;BME280;51342;55.250;37.668;2022-12-16T08:01:27;99859.41;;;-2.39;77.90
45369;BME280;51342;55.250;37.668;2022-12-16T08:04:17;99861.78;;;-2.41;77.73
45369;BME280;51342;55.250;37.668;2022-12-16T08:07:07;99866.28;;;-2.38;77.54
45369;BME280;51342;55.250;37.668;2022-12-16T08:09:57;99869.72;;;-2.37;77.63
45369;BME280;51342;55.250;37.668;2022-12-16T08:12:47;99881.50;;;-2.38;77.31
45369;BME280;51342;55.250;37.668;2022-12-16T08:15:37;99872.66;;;-2.42;77.44
45369;BME280;51342;55.250;37.668;2022-12-16T08:18:27;99887.78;;;-2.34;77.33
45369;BME280;51342;55.250;37.668;2022-12-16T08:21:17;99891.41;;;-2.32;77.20
45369;BME280;51342;55.250;37.668;2022-12-16T08:24:07;99890.66;;;-2.31;77.10
45369;BME280;51342;55.250;37.668;2022-12-16T08:26:56;99895.16;;;-2.29;76.94
45369;BME280;51342;55.250;37.668;2022-12-16T08:29:46;99897.69;;;-2.29;76.85
45369;BME280;51342;55.250;37.668;2022-12-16T08:32:36;99907.50;;;-2.32;76.77
45369;BME280;51342;55.250;37.668;2022-12-16T08:35:26;99911.84;;;-2.31;76.71
45369;BME280;51342;55.250;37.668;2022-12-16T08:38:16;99913.28;;;-2.33;76.69
45369;BME280;51342;55.250;37.668;2022-12-16T08:41:06;99916.75;;;-2.32;76.72
45369;BME280;51342;55.250;37.668;2022-12-16T08:43:55;99917.44;;;-2.33;76.50
45369;BME280;51342;55.250;37.668;2022-12-16T08:46:45;99922.72;;;-2.32;76.48
45369;BME280;51342;55.250;37.668;2022-12-16T08:49:35;99937.16;;;-2.31;76.39
45369;BME280;51342;55.250;37.668;2022-12-16T08:52:25;99944.78;;;-2.31;76.32
45369;BME280;51342;55.250;37.668;2022-12-16T08:55:15;99945.16;;;-2.35;76.52
45369;BME280;51342;55.250;37.668;2022-12-16T08:58:05;99956.19;;;-2.34;76.47
45369;BME280;51342;55.250;37.668;2022-12-16T09:00:55;99956.34;;;-2.33;76.26
45369;BME280;51342;55.250;37.668;2022-12-16T09:03:46;99956.94;;;-2.35;76.13
45369;BME280;51342;55.250;37.668;2022-12-16T09:06:36;99961.09;;;-2.36;76.23
45369;BME280;51342;55.250;37.668;2022-12-16T09:09:25;99965.09;;;-2.38;76.37
45369;BME280;51342;55.250;37.668;2022-12-16T09:12:15;99961.47;;;-2.40;76.28
45369;BME280;51342;55.250;37.668;2022-12-16T09:15:06;99969.06;;;-2.40;76.24
45369;BME280;51342;55.250;37.668;2022-12-16T09:17:56;99968.91;;;-2.42;76.52
45369;BME280;51342;55.250;37.668;2022-12-16T09:20:46;99981.75;;;-2.40;76.15
45369;BME280;51342;55.250;37.668;2022-12-16T09:23:36;99972.72;;;-2.45;76.20
45369;BME280;51342;55.250;37.668;2022-12-16T09:26:27;99978.69;;;-2.45;76.14
45369;BME280;51342;55.250;37.668;2022-12-16T09:29:17;99985.41;;;-2.45;76.10
45369;BME280;51342;55.250;37.668;2022-12-16T09:32:07;99992.09;;;-2.46;75.87
45369;BME280;51342;55.250;37.668;2022-12-16T09:34:57;99989.25;;;-2.49;75.56
45369;BME280;51342;55.250;37.668;2022-12-16T09:37:47;100001.16;;;-2.48;75.62
45369;BME280;51342;55.250;37.668;2022-12-16T09:40:39;100008.97;;;-2.53;75.48
45369;BME280;51342;55.250;37.668;2022-12-16T09:43:54;100006.09;;;-2.56;75.71
45369;BME280;51342;55.250;37.668;2022-12-16T09:46:58;100018.75;;;-2.56;75.30
45369;BME280;51342;55.250;37.668;2022-12-16T09:49:51;100023.09;;;-2.55;75.39
45369;BME280;51342;55.250;37.668;2022-12-16T09:52:56;100019.31;;;-2.59;75.21
45369;BME280;51342;55.250;37.668;2022-12-16T09:55:48;100027.81;;;-2.58;75.26
45369;BME280;51342;55.250;37.668;2022-12-16T09:59:10;100031.25;;;-2.58;75.09
45369;BME280;51342;55.250;37.668;2022-12-16T10:01:56;100038.13;;;-2.57;75.49
45369;BME280;51342;55.250;37.668;2022-12-16T10:04:50;100034.69;;;-2.57;75.16
45369;BME280;51342;55.250;37.668;2022-12-16T10:08:11;100040.66;;;-2.57;74.82
45369;BME280;51342;55.250;37.668;2022-12-16T10:11:22;100044.28;;;-2.62;74.98
45369;BME280;51342;55.250;37.668;2022-12-16T10:14:23;100046.28;;;-2.59;75.17
45369;BME280;51342;55.250;37.668;2022-12-16T10:17:20;100049.16;;;-2.56;75.07
45369;BME280;51342;55.250;37.668;2022-12-16T10:20:32;100051.50;;;-2.58;75.10
45369;BME280;51342;55.250;37.668;2022-12-16T10:23:50;100050.25;;;-2.61;74.92
45369;BME280;51342;55.250;37.668;2022-12-16T10:27:03;100054.78;;;-2.59;74.96
45369;BME280;51342;55.250;37.668;2022-12-16T10:29:59;100075.38;;;-2.56;75.11
45369;BME280;51342;55.250;37.668;2022-12-16T10:32:50;100090.56;;;-2.56;75.01
45369;BME280;51342;55.250;37.668;2022-12-16T10:35:48;100086.44;;;-2.62;74.96
45369;BME280;51342;55.250;37.668;2022-12-16T10:39:21;100091.19;;;-2.65;74.74
45369;BME280;51342;55.250;37.668;2022-12-16T10:42:01;100096.25;;;-2.65;75.15
45369;BME280;51342;55.250;37.668;2022-12-16T10:44:54;100104.56;;;-2.67;75.10
45369;BME280;51342;55.250;37.668;2022-12-16T10:47:46;100110.72;;;-2.64;75.00
45369;BME280;51342;55.250;37.668;2022-12-16T10:50:36;100108.91;;;-2.65;74.90
45369;BME280;51342;55.250;37.668;2022-12-16T10:53:26;100116.13;;;-2.69;75.14
45369;BME280;51342;55.250;37.668;2022-12-16T10:59:13;100113.28;;;-2.72;75.06
45369;BME280;51342;55.250;37.668;2022-12-16T11:02:25;100117.25;;;-2.81;74.99
45369;BME280;51342;55.250;37.668;2022-12-16T11:08:40;100142.59;;;-2.81;74.79
45369;BME280;51342;55.250;37.668;2022-12-16T11:11:30;100155.22;;;-2.74;75.16
45369;BME280;51342;55.250;37.668;2022-12-16T11:14:30;100149.41;;;-2.73;75.09
45369;BME280;51342;55.250;37.668;2022-12-16T11:17:23;100161.56;;;-2.70;75.26
45369;BME280;51342;55.250;37.668;2022-12-16T11:20:22;100161.91;;;-2.74;75.12
45369;BME280;51342;55.250;37.668;2022-12-16T11:23:18;100166.06;;;-2.75;74.95
45369;BME280;51342;55.250;37.668;2022-12-16T11:26:14;100174.56;;;-2.74;75.07
45369;BME280;51342;55.250;37.668;2022-12-16T11:29:12;100177.09;;;-2.74;75.08
45369;BME280;51342;55.250;37.668;2022-12-16T11:32:21;100187.06;;;-2.76;75.20
45369;BME280;51342;55.250;37.668;2022-12-16T11:35:18;100196.63;;;-2.73;75.11
45369;BME280;51342;55.250;37.668;2022-12-16T11:41:30;100199.38;;;-2.72;75.05
45369;BME280;51342;55.250;37.668;2022-12-16T11:44:51;100210.03;;;-2.74;75.22
45369;BME280;51342;55.250;37.668;2022-12-16T11:47:46;100222.34;;;-2.77;75.04
45369;BME280;51342;55.250;37.668;2022-12-16T11:50:48;100225.56;;;-2.78;75.07
45369;BME280;51342;55.250;37.668;2022-12-16T11:53:44;100229.38;;;-2.75;75.36
45369;BME280;51342;55.250;37.668;2022-12-16T11:56:41;100229.03;;;-2.78;75.41
45369;BME280;51342;55.250;37.668;2022-12-16T11:59:41;100240.59;;;-2.80;75.37
45369;BME280;51342;55.250;37.668;2022-12-16T12:08:01;100245.84;;;-2.85;75.00
45369;BME280;51342;55.250;37.668;2022-12-16T12:11:06;100256.88;;;-2.85;75.37
45369;BME280;51342;55.250;37.668;2022-12-16T12:14:12;100260.31;;;-2.84;75.40
45369;BME280;51342;55.250;37.668;2022-12-16T12:20:28;100261.94;;;-2.85;75.48
45369;BME280;51342;55.250;37.668;2022-12-16T12:26:32;100269.16;;;-2.95;75.34
45369;BME280;51342;55.250;37.668;2022-12-16T12:36:41;100274.78;;;-3.12;75.10
45369;BME280;51342;55.250;37.668;2022-12-16T12:39:52;100281.44;;;-3.12;75.48
45369;BME280;51342;55.250;37.668;2022-12-16T12:42:55;100282.00;;;-3.15;75.43
45369;BME280;51342;55.250;37.668;2022-12-16T12:48:56;100287.78;;;-3.16;75.06
45369;BME280;51342;55.250;37.668;2022-12-16T12:54:55;100299.88;;;-3.21;74.76
45369;BME280;51342;55.250;37.668;2022-12-16T12:57:50;100302.41;;;-3.21;75.03
45369;BME280;51342;55.250;37.668;2022-12-16T13:00:49;100310.56;;;-3.23;74.92
45369;BME280;51342;55.250;37.668;2022-12-16T13:04:04;100312.88;;;-3.32;74.93
45369;BME280;51342;55.250;37.668;2022-12-16T13:06:57;100319.22;;;-3.28;75.05
45369;BME280;51342;55.250;37.668;2022-12-16T13:16:10;100331.47;;;-3.38;74.93
45369;BME280;51342;55.250;37.668;2022-12-16T13:22:33;100327.81;;;-3.48;74.83
45369;BME280;51342;55.250;37.668;2022-12-16T13:25:37;100328.72;;;-3.47;74.96
45369;BME280;51342;55.250;37.668;2022-12-16T13:28:30;100336.69;;;-3.51;75.10
45369;BME280;51342;55.250;37.668;2022-12-16T13:31:21;100341.00;;;-3.50;75.15
45369;BME280;51342;55.250;37.668;2022-12-16T13:37:06;100363.38;;;-3.53;75.27
45369;BME280;51342;55.250;37.668;2022-12-16T13:43:03;100381.47;;;-3.57;75.20
45369;BME280;51342;55.250;37.668;2022-12-16T13:46:12;100376.00;;;-3.60;75.22
45369;BME280;51342;55.250;37.668;2022-12-16T13:52:50;100375.41;;;-3.72;75.49
45369;BME280;51342;55.250;37.668;2022-12-16T13:55:56;100385.19;;;-3.68;75.67
45369;BME280;51342;55.250;37.668;2022-12-16T13:58:50;100379.59;;;-3.65;75.38
45369;BME280;51342;55.250;37.668;2022-12-16T14:01:53;100387.72;;;-3.68;75.54
45369;BME280;51342;55.250;37.668;2022-12-16T14:07:36;100400.91;;;-3.63;75.76
45369;BME280;51342;55.250;37.668;2022-12-16T14:10:29;100395.66;;;-3.65;75.69
45369;BME280;51342;55.250;37.668;2022-12-16T14:19:58;100409.91;;;-3.72;75.87
45369;BME280;51342;55.250;37.668;2022-12-16T14:22:57;100415.69;;;-3.74;75.89
45369;BME280;51342;55.250;37.668;2022-12-16T14:25:55;100396.69;;;-3.77;75.77
45369;BME280;51342;55.250;37.668;2022-12-16T14:28:47;100408.78;;;-3.75;75.93
45369;BME280;51342;55.250;37.668;2022-12-16T14:31:39;100399.75;;;-3.80;75.88
45369;BME280;51342;55.250;37.668;2022-12-16T14:34:32;100409.88;;;-3.80;75.87
45369;BME280;51342;55.250;37.668;2022-12-16T14:37:32;100418.34;;;-3.79;75.87
45369;BME280;51342;55.250;37.668;2022-12-16T14:40:27;100426.13;;;-3.78;76.01
45369;BME280;51342;55.250;37.668;2022-12-16T14:43:22;100426.31;;;-3.76;75.83
45369;BME280;51342;55.250;37.668;2022-12-16T14:46:27;100437.28;;;-3.83;75.85
45369;BME280;51342;55.250;37.668;2022-12-16T14:49:23;100438.38;;;-3.81;76.12
45369;BME280;51342;55.250;37.668;2022-12-16T14:52:24;100438.19;;;-3.82;75.94
45369;BME280;51342;55.250;37.668;2022-12-16T14:55:32;100443.06;;;-3.84;75.95
45369;BME280;51342;55.250;37.668;2022-12-16T14:58:23;100440.13;;;-3.87;75.95
45369;BME280;51342;55.250;37.668;2022-12-16T15:01:17;100441.94;;;-3.86;76.05
45369;BME280;51342;55.250;37.668;2022-12-16T15:04:16;100432.19;;;-3.90;76.10
45369;BME280;51342;55.250;37.668;2022-12-16T15:07:12;100441.56;;;-3.89;76.17
45369;BME280;51342;55.250;37.668;2022-12-16T15:10:03;100446.81;;;-3.87;76.40
45369;BME280;51342;55.250;37.668;2022-12-16T15:12:53;100444.47;;;-3.86;76.42
45369;BME280;51342;55.250;37.668;2022-12-16T15:15:45;100452.78;;;-3.87;76.49
45369;BME280;51342;55.250;37.668;2022-12-16T15:18:39;100459.63;;;-3.86;76.45
45369;BME280;51342;55.250;37.668;2022-12-16T15:21:34;100439.94;;;-3.88;76.32
45369;BME280;51342;55.250;37.668;2022-12-16T15:24:25;100449.34;;;-3.87;76.55
45369;BME280;51342;55.250;37.668;2022-12-16T15:27:25;100451.16;;;-3.86;76.60
45369;BME280;51342;55.250;37.668;2022-12-16T15:30:47;100457.41;;;-3.97;76.52
45369;BME280;51342;55.250;37.668;2022-12-16T15:33:37;100455.66;;;-3.91;76.66
45369;BME280;51342;55.250;37.668;2022-12-16T15:36:30;100451.28;;;-3.92;76.65
45369;BME280;51342;55.250;37.668;2022-12-16T15:39:36;100446.63;;;-3.89;76.89
45369;BME280;51342;55.250;37.668;2022-12-16T15:42:30;100456.94;;;-3.87;76.95
45369;BME280;51342;55.250;37.668;2022-12-16T15:45:25;100451.69;;;-3.89;76.79
45369;BME280;51342;55.250;37.668;2022-12-16T15:48:32;100435.94;;;-3.93;76.74
45369;BME280;51342;55.250;37.668;2022-12-16T15:51:29;100445.72;;;-3.89;76.79
45369;BME280;51342;55.250;37.668;2022-12-16T15:54:21;100452.00;;;-3.93;76.70
45369;BME280;51342;55.250;37.668;2022-12-16T15:57:29;100449.44;;;-4.00;76.76
45369;BME280;51342;55.250;37.668;2022-12-16T16:00:30;100448.34;;;-4.02;76.71
45369;BME280;51342;55.250;37.668;2022-12-16T16:03:29;100446.91;;;-4.00;76.89
45369;BME280;51342;55.250;37.668;2022-12-16T16:06:24;100444.38;;;-4.00;76.90
45369;BME280;51342;55.250;37.668;2022-12-16T16:09:20;100447.31;;;-3.97;76.96
45369;BME280;51342;55.250;37.668;2022-12-16T16:12:14;100455.94;;;-4.02;77.01
45369;BME280;51342;55.250;37.668;2022-12-16T16:15:05;100451.56;;;-4.03;76.96
45369;BME280;51342;55.250;37.668;2022-12-16T16:18:08;100458.78;;;-4.06;76.93